Messwerte Klawock

Temperatur

Temperatur
°C
1573632000 23.00 23.00 9
1573635600 0.00 0.00 9
1573639200 1.00 1.00
1573642800 2.00 2.00 9
1573646400 3.00 3.00 9
1573650000 4.00 4.00 9
1573653600 5.00 5.00 9
1573657200 6.00 6.00 10
1573660800 7.00 7.00 9
1573664400 8.00 8.00
1573668000 9.00 9.00 9
1573671600 10.00 10.00 10
1573675200 11.00 11.00 10
1573678800 12.00 12.00 10
1573682400 13.00 13.00
1573686000 14.00 14.00 11
1573689600 15.00 15.00 11
1573693200 16.00 16.00 11
1573696800 17.00 17.00
1573700400 18.00 18.00
1573704000 19.00 19.00 10
1573707600 20.00 20.00
1573711200 21.00 21.00 9
1573714800 22.00 22.00 10

Aktuellste Messwerte

Wettercharakter
Wetter: trüb und nass
Temperatur
9 °C
Feuchtigkeit
85 %
Wind
5 km/h, -
Luftdruck
1000 hPa
Messzeit: 13. November 2019, 23.00Datenquelle: METAR

Weitere Messstationen in der Nähe

Messstation Temperatur Entfernung
Ketchikan 9 °C 91 km
Metlakatla 11 °C 107 km
Wrangell 10 °C 109 km
Petersburg 8 °C 138 km
Langara Island 10 °C 148 km
Kake, Kake Airport 8 °C 164 km
Rose Spit 10 °C 183 km

Wind

Windrichtung Böen Mittelwind
° km/h km/h
1573632000 23.00 22.00 - 23.00 180° 10
1573635600 0.00 23.00 - 0.00 200° 5
1573639200 1.00 0.00 - 1.00
1573642800 2.00 1.00 - 2.00 160° 10
1573646400 3.00 2.00 - 3.00 5
1573650000 4.00 3.00 - 4.00 160° 15
1573653600 5.00 4.00 - 5.00 160° 10
1573657200 6.00 5.00 - 6.00 140° 10
1573660800 7.00 6.00 - 7.00 150° 10
1573664400 8.00 7.00 - 8.00
1573668000 9.00 8.00 - 9.00 0
1573671600 10.00 9.00 - 10.00 180° 5
1573675200 11.00 10.00 - 11.00 150° 5
1573678800 12.00 11.00 - 12.00 0
1573682400 13.00 12.00 - 13.00
1573686000 14.00 13.00 - 14.00 5
1573689600 15.00 14.00 - 15.00 150° 15
1573693200 16.00 15.00 - 16.00 150° 35 20
1573696800 17.00 16.00 - 17.00
1573700400 18.00 17.00 - 18.00
1573704000 19.00 18.00 - 19.00 120° 10
1573707600 20.00 19.00 - 20.00
1573711200 21.00 20.00 - 21.00
1573714800 22.00 21.00 - 22.00 130° 40 15

Ihre Wetterstation

Fehlt Ihre Wetterstation auf unserem Portal?

Schreiben Sie an network@meteonews.ch

Klima

Wann ist es am wärmsten? Wann regnet es am wenigsten? Unsere Klimadaten geben Auskunft.